Time;durP1;ratioP1;P1;durP2;ratioP2;P2;SDS_P1;SDS_P2;PMS_P1;PMS_P2;Temp;Humidity;BMP_temperature;BMP_pressure;BME280_temperature;BME280_humidity;BME280_pressure;Samples;Min_cycle;Max_cycle;Signal;HPM_P1;HPM_P2
2022/09/26 00:00:04;;;;;;;6.18;3.80;;;;;;;11.68;100.00;97819.69;5043112;28;20029;-81
2022/09/26 00:02:30;;;;;;;8.02;4.10;;;;;;;11.75;100.00;97799.31;5060342;28;20037;-81
2022/09/26 00:04:56;;;;;;;4.18;2.90;;;;;;;11.64;100.00;97798.31;5058521;28;20029;-80
2022/09/26 00:07:22;;;;;;;6.05;2.50;;;;;;;11.58;100.00;97809.75;5059379;28;20043;-80
2022/09/26 00:09:47;;;;;;;4.85;2.20;;;;;;;11.65;100.00;97814.88;5062970;28;20036;-81
2022/09/26 00:12:13;;;;;;;3.30;2.25;;;;;;;11.56;100.00;97823.13;5059408;28;20375;-81
2022/09/26 00:14:39;;;;;;;4.25;2.75;;;;;;;11.68;100.00;97809.16;5057905;28;20502;-81
2022/09/26 00:17:05;;;;;;;2.50;2.17;;;;;;;11.55;100.00;97800.50;5056871;28;20033;-81
2022/09/26 00:19:30;;;;;;;4.32;2.85;;;;;;;11.34;100.00;97799.28;5059602;28;20036;-81
2022/09/26 00:21:56;;;;;;;4.38;2.40;;;;;;;11.68;100.00;97796.03;5062207;28;20036;-80
2022/09/26 00:24:21;;;;;;;5.68;2.70;;;;;;;11.47;100.00;97800.84;5059896;28;20034;-81
2022/09/26 00:26:47;;;;;;;3.45;2.85;;;;;;;11.28;100.00;97781.78;5061182;28;20029;-81
2022/09/26 00:29:13;;;;;;;4.75;2.10;;;;;;;11.44;100.00;97793.44;5062792;28;20478;-81
2022/09/26 00:31:41;;;;;;;1.95;1.70;;;;;;;11.39;100.00;97790.69;5058631;28;20053;-80
2022/09/26 00:34:07;;;;;;;2.83;2.08;;;;;;;11.38;100.00;97799.59;5064633;28;20029;-78
2022/09/26 00:36:32;;;;;;;2.42;2.03;;;;;;;11.47;100.00;97798.22;5060995;28;20025;-82
2022/09/26 00:38:59;;;;;;;2.33;1.90;;;;;;;11.51;100.00;97778.34;5062247;28;20029;-80
2022/09/26 00:41:25;;;;;;;3.33;2.10;;;;;;;11.44;100.00;97788.19;5066008;28;20040;-81
2022/09/26 00:43:56;;;;;;;2.95;2.13;;;;;;;11.51;100.00;97803.84;5061904;28;20029;-81
2022/09/26 00:46:27;;;;;;;2.92;2.00;;;;;;;11.40;100.00;97787.06;5062011;28;20032;-82
2022/09/26 00:49:04;;;;;;;1.85;1.75;;;;;;;11.58;100.00;97781.63;5047645;28;20028;-82
2022/09/26 00:51:32;;;;;;;1.50;1.40;;;;;;;11.45;100.00;97776.66;5063148;28;20051;-81
2022/09/26 00:53:58;;;;;;;1.90;1.60;;;;;;;11.43;100.00;97761.09;5060130;28;20047;-82
2022/09/26 00:56:29;;;;;;;1.92;1.55;;;;;;;11.70;100.00;97770.31;5055794;28;20024;-81
2022/09/26 00:59:19;;;;;;;1.80;1.45;;;;;;;11.44;100.00;97767.16;5055824;28;20091;-82
2022/09/26 01:01:45;;;;;;;2.15;1.60;;;;;;;11.78;100.00;97756.78;5063996;28;20115;-82
2022/09/26 01:04:11;;;;;;;1.50;1.40;;;;;;;11.65;100.00;97754.44;5058004;28;20511;-82
2022/09/26 01:06:38;;;;;;;1.58;1.30;;;;;;;11.54;100.00;97735.81;5059017;28;20032;-81
2022/09/26 01:09:08;;;;;;;1.38;1.25;;;;;;;11.81;100.00;97743.19;5058721;28;20040;-80
2022/09/26 01:11:40;;;;;;;1.30;1.20;;;;;;;11.77;100.00;97720.22;5058205;28;20501;-82
2022/09/26 01:14:09;;;;;;;1.25;1.00;;;;;;;11.93;100.00;97711.59;5059441;28;20041;-82
2022/09/26 01:16:36;;;;;;;1.30;1.10;;;;;;;11.85;100.00;97707.50;5061432;28;20031;-82
2022/09/26 01:19:11;;;;;;;1.70;1.33;;;;;;;11.89;100.00;97709.66;5055901;28;20494;-82
2022/09/26 01:21:53;;;;;;;2.30;1.70;;;;;;;12.04;100.00;97717.84;5059626;28;20352;-82
2022/09/26 01:24:23;;;;;;;1.80;1.70;;;;;;;11.97;100.00;97701.38;5063405;28;20112;-81
2022/09/26 01:26:54;;;;;;;2.97;2.00;;;;;;;11.98;100.00;97709.03;5065590;28;20029;-81
2022/09/26 01:29:57;;;;;;;3.15;1.90;;;;;;;12.04;100.00;97709.16;5056330;28;20120;-81
2022/09/26 01:33:03;;;;;;;4.97;3.50;;;;;;;12.25;100.00;97676.09;5060501;28;20032;-82
2022/09/26 01:36:00;;;;;;;9.13;4.85;;;;;;;12.28;100.00;97679.06;5055968;28;20431;-81
2022/09/26 01:38:41;;;;;;;;;;;;;;;12.32;100.00;97666.19;5057485;28;20028;-81
2022/09/26 01:41:31;;;;;;;10.68;5.22;;;;;;;12.30;100.00;97663.03;5051400;28;19912;-81
2022/09/26 01:44:21;;;;;;;7.32;4.47;;;;;;;12.47;100.00;97656.97;5058823;28;20028;-82
2022/09/26 01:46:55;;;;;;;4.82;3.40;;;;;;;12.51;100.00;97643.09;5066205;28;20485;-82
2022/09/26 01:49:24;;;;;;;4.70;2.90;;;;;;;12.29;100.00;97635.13;5057816;28;20070;-81
2022/09/26 01:52:00;;;;;;;2.50;2.17;;;;;;;12.42;100.00;97640.06;5057369;28;20379;-81
2022/09/26 01:54:35;;;;;;;3.17;2.00;;;;;;;12.21;100.00;97638.94;5064374;28;20505;-82
2022/09/26 01:57:05;;;;;;;5.00;3.35;;;;;;;12.20;100.00;97623.41;5064137;28;20467;-81
2022/09/26 01:59:38;;;;;;;7.80;4.68;;;;;;;12.45;100.00;97616.94;5062221;28;20067;-81
2022/09/26 02:02:12;;;;;;;8.55;6.07;;;;;;;12.34;100.00;97619.41;5066183;28;20060;-82
2022/09/26 02:04:40;;;;;;;;;;;;;;;12.52;100.00;97617.53;5063413;28;20441;-82
2022/09/26 02:07:09;;;;;;;9.27;6.10;;;;;;;12.37;100.00;97611.03;5060075;28;20051;-83
2022/09/26 02:09:44;;;;;;;5.93;4.95;;;;;;;12.46;100.00;97606.13;5064947;28;20033;-81
2022/09/26 02:12:18;;;;;;;9.10;4.70;;;;;;;12.64;100.00;97583.22;5061860;28;20027;-82
2022/09/26 02:14:46;;;;;;;6.07;4.50;;;;;;;12.54;100.00;97573.34;5046309;28;20045;-83
2022/09/26 02:17:21;;;;;;;5.80;3.83;;;;;;;12.23;100.00;97534.28;5061560;28;20067;-83
2022/09/26 02:19:58;;;;;;;4.93;3.85;;;;;;;12.60;100.00;97569.78;5059853;28;20395;-82
2022/09/26 02:22:27;;;;;;;9.13;4.47;;;;;;;12.52;100.00;97570.16;5063026;28;20025;-81
2022/09/26 02:24:53;;;;;;;8.25;4.80;;;;;;;12.49;100.00;97576.72;5063173;28;20037;-82
2022/09/26 02:27:19;;;;;;;11.68;4.38;;;;;;;12.67;100.00;97580.91;5046288;28;20498;-82
2022/09/26 02:29:45;;;;;;;8.18;4.90;;;;;;;12.68;100.00;97613.31;5063650;28;20041;-82
2022/09/26 02:32:16;;;;;;;7.00;4.35;;;;;;;12.62;100.00;97606.34;5062976;28;20024;-82
2022/09/26 02:34:45;;;;;;;5.65;3.25;;;;;;;12.47;100.00;97620.09;5062113;28;20471;-82
2022/09/26 02:37:13;;;;;;;13.23;3.40;;;;;;;12.04;100.00;97631.06;5061949;28;20025;-80
2022/09/26 02:39:41;;;;;;;15.05;2.47;;;;;;;11.88;100.00;97601.03;5063012;28;20449;-83
2022/09/26 02:42:23;;;;;;;18.48;3.63;;;;;;;11.77;100.00;97591.41;5063735;28;20111;-83
2022/09/26 02:45:16;;;;;;;11.43;3.30;;;;;;;11.58;100.00;97595.03;5044730;28;20502;-84
2022/09/26 02:48:03;;;;;;;10.77;2.92;;;;;;;11.57;100.00;97598.69;5063723;28;20052;-84
2022/09/26 02:50:46;;;;;;;17.00;3.35;;;;;;;11.48;100.00;97584.38;5066927;28;20387;-82
2022/09/26 02:53:27;;;;;;;;;;;;;;;11.33;100.00;97591.97;5041027;28;20394;-82
2022/09/26 02:56:05;;;;;;;23.35;3.60;;;;;;;11.27;100.00;97573.50;5060293;28;19916;-83
2022/09/26 02:58:43;;;;;;;18.25;3.58;;;;;;;11.35;100.00;97571.50;5059140;28;20111;-83
2022/09/26 03:01:28;;;;;;;17.30;3.58;;;;;;;11.38;100.00;97565.78;5044983;28;20110;-84
2022/09/26 03:04:35;;;;;;;17.10;3.70;;;;;;;11.32;100.00;97564.91;5040870;28;20379;-82
2022/09/26 03:07:06;;;;;;;22.90;3.75;;;;;;;11.31;100.00;97552.00;5047033;28;20051;-83
2022/09/26 03:09:34;;;;;;;16.00;3.47;;;;;;;11.22;100.00;97531.38;5067909;28;20059;-82
2022/09/26 03:12:03;;;;;;;22.45;4.10;;;;;;;11.46;100.00;97518.13;5065696;28;20514;-83
2022/09/26 03:14:32;;;;;;;23.15;5.55;;;;;;;11.25;100.00;97522.22;5067013;28;20040;-83
2022/09/26 03:16:58;;;;;;;15.88;3.50;;;;;;;11.36;100.00;97523.19;5062669;28;20449;-83
2022/09/26 03:19:48;;;;;;;17.90;4.00;;;;;;;11.35;100.00;97526.84;5059515;28;20123;-84
2022/09/26 03:22:15;;;;;;;25.70;4.63;;;;;;;11.31;100.00;97538.88;5042929;28;20025;-84
2022/09/26 03:24:42;;;;;;;29.83;5.15;;;;;;;11.38;100.00;97526.38;5063953;28;20053;-84
2022/09/26 03:27:11;;;;;;;21.83;4.32;;;;;;;11.36;100.00;97531.06;5065650;28;20024;-83
2022/09/26 03:29:37;;;;;;;16.00;4.03;;;;;;;11.42;100.00;97532.78;5056722;28;20463;-84
2022/09/26 03:32:04;;;;;;;21.02;4.65;;;;;;;11.29;100.00;97532.03;5062228;28;20496;-84
2022/09/26 03:34:44;;;;;;;16.55;4.47;;;;;;;11.58;100.00;97528.56;5062876;28;20032;-81
2022/09/26 03:37:10;;;;;;;15.02;3.83;;;;;;;11.34;100.00;97509.50;5060312;28;20029;-83
2022/09/26 03:39:35;;;;;;;20.27;3.85;;;;;;;11.27;100.00;97547.22;5044597;28;20038;-82
2022/09/26 03:42:01;;;;;;;23.23;4.90;;;;;;;11.32;100.00;97508.94;5065520;28;20040;-84
2022/09/26 03:44:28;;;;;;;18.30;4.03;;;;;;;11.19;100.00;97510.03;5044698;28;20471;-84
2022/09/26 03:46:54;;;;;;;16.92;3.63;;;;;;;11.15;100.00;97499.19;5045626;28;20482;-84
2022/09/26 03:49:20;;;;;;;29.45;5.15;;;;;;;11.11;100.00;97484.97;5063105;28;20032;-83
2022/09/26 03:51:45;;;;;;;19.75;4.20;;;;;;;11.09;100.00;97502.78;5061012;28;20059;-82
2022/09/26 03:54:12;;;;;;;28.70;3.90;;;;;;;10.84;100.00;97502.06;5060743;28;20033;-83
2022/09/26 03:56:40;;;;;;;25.80;4.72;;;;;;;10.63;100.00;97482.53;5061326;28;20033;-84
2022/09/26 03:59:08;;;;;;;26.73;4.10;;;;;;;10.77;100.00;97482.25;5060123;28;20335;-82
2022/09/26 04:01:39;;;;;;;28.67;4.35;;;;;;;10.76;100.00;97493.78;5058433;28;20482;-81
2022/09/26 04:04:04;;;;;;;27.75;5.07;;;;;;;10.37;100.00;97476.75;5064292;28;20511;-82
2022/09/26 04:06:31;;;;;;;37.10;6.40;;;;;;;10.51;100.00;97484.38;5063415;28;20048;-82
2022/09/26 04:08:57;;;;;;;28.75;5.20;;;;;;;10.38;100.00;97493.28;5059699;28;20078;-82
2022/09/26 04:11:23;;;;;;;37.45;6.07;;;;;;;10.42;100.00;97504.94;5059620;28;20028;-84
2022/09/26 04:13:50;;;;;;;38.28;6.20;;;;;;;10.52;100.00;97493.84;5063384;28;20119;-83
2022/09/26 04:16:16;;;;;;;32.55;6.32;;;;;;;10.41;100.00;97482.34;5054984;28;20032;-83
2022/09/26 04:18:41;;;;;;;41.55;8.20;;;;;;;10.39;100.00;97493.03;5063022;28;20036;-82
2022/09/26 04:21:11;;;;;;;38.55;7.25;;;;;;;10.37;100.00;97475.97;5055965;28;20036;-82
2022/09/26 04:23:39;;;;;;;35.70;6.28;;;;;;;10.34;100.00;97482.44;5058944;28;20051;-81
2022/09/26 04:26:10;;;;;;;35.25;6.72;;;;;;;10.52;100.00;97478.91;5058770;28;20115;-82
2022/09/26 04:28:36;;;;;;;45.10;7.28;;;;;;;10.42;100.00;97476.88;5060368;28;20033;-83
2022/09/26 04:31:05;;;;;;;42.25;6.80;;;;;;;10.49;100.00;97468.88;5058686;28;20025;-83
2022/09/26 04:33:32;;;;;;;40.55;7.72;;;;;;;10.31;100.00;97461.94;5064503;28;20025;-82
2022/09/26 04:36:04;;;;;;;43.65;7.40;;;;;;;10.28;100.00;97452.69;5060067;28;20049;-81
2022/09/26 04:38:32;;;;;;;50.58;8.13;;;;;;;10.32;100.00;97467.97;5058860;28;20126;-82
2022/09/26 04:41:13;;;;;;;43.97;7.40;;;;;;;10.26;100.00;97480.97;5063086;28;20108;-82
2022/09/26 04:43:40;;;;;;;29.65;8.57;;;;;;;10.02;100.00;97474.97;5065480;28;20043;-81
2022/09/26 04:46:12;;;;;;;48.25;8.25;;;;;;;9.90;100.00;97463.72;5043450;28;20028;-82
2022/09/26 04:48:37;;;;;;;57.70;8.70;;;;;;;9.90;100.00;97456.63;5055949;28;20032;-83
2022/09/26 04:51:07;;;;;;;52.20;9.55;;;;;;;9.89;100.00;97472.59;5061640;28;20040;-81
2022/09/26 04:53:33;;;;;;;54.92;9.90;;;;;;;9.58;100.00;97438.66;5060567;28;20021;-81
2022/09/26 04:55:59;;;;;;;52.97;8.73;;;;;;;9.81;100.00;97448.31;5062684;28;20028;-84
2022/09/26 04:58:25;;;;;;;44.85;7.95;;;;;;;9.75;100.00;97441.38;5062613;28;20484;-82
2022/09/26 05:00:52;;;;;;;49.22;9.02;;;;;;;9.66;100.00;97442.75;5062694;28;20104;-82
2022/09/26 05:03:17;;;;;;;48.70;8.32;;;;;;;9.61;100.00;97432.13;5060835;28;20124;-81
2022/09/26 05:05:46;;;;;;;49.67;7.60;;;;;;;9.65;100.00;97443.78;5063269;28;20028;-83
2022/09/26 05:08:13;;;;;;;59.33;9.32;;;;;;;9.71;100.00;97446.25;5063712;28;20025;-83
2022/09/26 05:10:40;;;;;;;56.33;8.40;;;;;;;9.60;100.00;97443.63;5058623;28;20037;-83
2022/09/26 05:13:06;;;;;;;62.33;9.27;;;;;;;9.36;100.00;97430.53;5064572;28;20463;-83
2022/09/26 05:15:38;;;;;;;52.22;7.93;;;;;;;9.64;100.00;97447.44;5060047;28;20037;-83
2022/09/26 05:18:07;;;;;;;49.60;7.80;;;;;;;9.58;100.00;97439.44;5058082;28;20037;-83
2022/09/26 05:20:33;;;;;;;48.90;9.27;;;;;;;9.55;100.00;97429.41;5060802;28;20044;-84
2022/09/26 05:23:05;;;;;;;68.00;8.88;;;;;;;9.74;100.00;97437.16;5056996;28;20025;-81
2022/09/26 05:28:25;;;;;;;57.83;9.52;;;;;;;9.69;100.00;97429.19;5071856;28;20028;-83
2022/09/26 05:30:51;;;;;;;39.22;8.45;;;;;;;9.65;100.00;97428.06;5063478;28;20413;-84
2022/09/26 05:33:20;;;;;;;56.50;9.50;;;;;;;9.53;100.00;97399.22;5063162;28;20032;-83
2022/09/26 05:35:52;;;;;;;52.03;7.82;;;;;;;9.66;100.00;97424.41;5066261;28;20029;-82
2022/09/26 05:38:17;;;;;;;37.03;7.57;;;;;;;9.53;100.00;97415.75;5064977;28;20044;-81
2022/09/26 05:40:55;;;;;;;50.75;8.80;;;;;;;9.55;100.00;97411.06;5068358;28;20028;-82
2022/09/26 05:43:23;;;;;;;50.45;8.68;;;;;;;9.60;100.00;97426.13;5065556;28;20094;-82
2022/09/26 05:45:49;;;;;;;48.25;8.07;;;;;;;9.76;100.00;97466.53;5060638;28;20040;-83
2022/09/26 05:48:16;;;;;;;53.45;9.40;;;;;;;9.57;100.00;97448.31;5064997;28;20124;-83
2022/09/26 05:50:42;;;;;;;68.05;10.23;;;;;;;9.69;100.00;97469.28;5066214;28;20036;-82
2022/09/26 05:53:08;;;;;;;52.47;7.75;;;;;;;9.53;100.00;97462.09;5064027;28;20033;-81
2022/09/26 05:55:36;;;;;;;64.15;8.40;;;;;;;9.73;100.00;97477.50;5059625;28;20037;-82
2022/09/26 05:58:01;;;;;;;48.13;8.82;;;;;;;9.60;100.00;97467.22;5045877;28;20037;-82
2022/09/26 06:00:27;;;;;;;49.13;9.70;;;;;;;9.73;100.00;97467.00;5063622;28;20036;-82
2022/09/26 06:02:57;;;;;;;56.75;8.88;;;;;;;9.59;100.00;97490.00;5060262;28;20025;-82
2022/09/26 06:05:26;;;;;;;54.97;9.85;;;;;;;9.67;100.00;97475.78;5064363;28;20041;-82
2022/09/26 06:07:52;;;;;;;49.53;9.48;;;;;;;9.64;100.00;97473.63;5063087;28;20132;-81
2022/09/26 06:10:18;;;;;;;57.05;11.63;;;;;;;9.65;100.00;97464.75;5062967;28;20075;-81
2022/09/26 06:12:44;;;;;;;42.47;7.50;;;;;;;9.73;100.00;97482.72;5059595;28;20119;-81
2022/09/26 06:15:10;;;;;;;40.10;7.63;;;;;;;9.64;100.00;97484.09;5062617;28;20045;-81
2022/09/26 06:17:36;;;;;;;40.65;7.07;;;;;;;9.73;100.00;97487.97;5060470;28;20033;-81
2022/09/26 06:20:04;;;;;;;39.33;6.93;;;;;;;9.72;100.00;97492.41;5061556;28;20434;-81
2022/09/26 06:22:32;;;;;;;42.25;6.70;;;;;;;9.75;100.00;97485.91;5065300;28;20398;-81
2022/09/26 06:24:58;;;;;;;51.65;7.93;;;;;;;9.75;100.00;97475.44;5064316;28;20028;-83
2022/09/26 06:27:24;;;;;;;46.75;8.05;;;;;;;9.78;100.00;97482.06;5063623;28;20505;-84
2022/09/26 06:29:50;;;;;;;40.35;8.55;;;;;;;9.76;100.00;97481.50;5059517;28;20052;-82
2022/09/26 06:32:16;;;;;;;43.67;8.23;;;;;;;9.78;100.00;97489.91;5060285;28;20064;-83
2022/09/26 06:34:42;;;;;;;45.85;8.20;;;;;;;9.79;100.00;97484.44;5061266;28;20043;-83
2022/09/26 06:37:07;;;;;;;37.55;6.43;;;;;;;10.08;100.00;97488.97;5062297;28;20024;-81
2022/09/26 06:39:35;;;;;;;42.55;7.50;;;;;;;10.03;100.00;97484.44;5062281;28;20478;-84
2022/09/26 06:42:06;;;;;;;47.75;7.30;;;;;;;9.99;100.00;97480.66;5064533;28;20107;-82
2022/09/26 06:44:32;;;;;;;38.17;7.38;;;;;;;9.97;100.00;97472.25;5063170;28;20032;-82
2022/09/26 06:47:01;;;;;;;50.85;9.68;;;;;;;10.02;100.00;97490.69;5064496;28;20422;-83
2022/09/26 06:49:27;;;;;;;42.83;7.90;;;;;;;9.97;100.00;97464.38;5059701;28;20095;-82
2022/09/26 06:51:53;;;;;;;45.97;7.55;;;;;;;10.14;100.00;97478.38;5060043;28;20431;-82
2022/09/26 06:54:20;;;;;;;48.50;6.80;;;;;;;10.00;100.00;97474.41;5062982;28;20024;-83
2022/09/26 06:56:46;;;;;;;44.03;7.20;;;;;;;9.95;100.00;97463.81;5064353;28;20497;-81
2022/09/26 06:59:15;;;;;;;41.15;7.28;;;;;;;9.85;100.00;97474.88;5061369;28;20039;-80
2022/09/26 07:01:44;;;;;;;46.45;7.75;;;;;;;9.71;100.00;97469.84;5064281;28;20103;-81
2022/09/26 07:04:10;;;;;;;37.42;6.85;;;;;;;9.87;100.00;97496.41;5060384;28;20028;-81
2022/09/26 07:06:37;;;;;;;40.80;7.05;;;;;;;9.90;100.00;97468.94;5062256;28;20021;-82
2022/09/26 07:09:02;;;;;;;37.65;7.68;;;;;;;9.83;100.00;97485.59;5057988;28;20046;-82
2022/09/26 07:11:28;;;;;;;31.25;6.93;;;;;;;9.95;100.00;97513.59;5061734;28;20033;-81
2022/09/26 07:13:53;;;;;;;35.08;7.30;;;;;;;10.02;100.00;97485.44;5059057;28;20045;-83
2022/09/26 07:16:19;;;;;;;34.05;6.05;;;;;;;10.22;100.00;97492.16;5064132;28;20029;-83
2022/09/26 07:18:45;;;;;;;41.08;6.20;;;;;;;10.22;100.00;97500.03;5062532;28;20726;-81
2022/09/26 07:21:10;;;;;;;33.05;5.97;;;;;;;10.10;100.00;97481.69;5058748;28;20056;-81
2022/09/26 07:23:36;;;;;;;34.50;6.53;;;;;;;10.19;100.00;97492.63;5060597;28;20025;-81
2022/09/26 07:26:02;;;;;;;35.17;6.50;;;;;;;10.07;100.00;97490.81;5066164;28;20028;-85
2022/09/26 07:28:29;;;;;;;42.97;6.82;;;;;;;10.25;100.00;97495.13;5061588;28;20037;-82
2022/09/26 07:30:56;;;;;;;47.13;7.55;;;;;;;10.21;100.00;97480.06;5058164;28;20502;-83
2022/09/26 07:33:22;;;;;;;39.17;6.72;;;;;;;9.92;100.00;97490.47;5060944;28;20550;-83
2022/09/26 07:35:49;;;;;;;31.00;7.53;;;;;;;9.99;100.00;97501.63;5042201;28;20064;-82
2022/09/26 07:38:17;;;;;;;38.30;6.45;;;;;;;10.00;100.00;97484.88;5060305;28;20056;-83
2022/09/26 07:40:43;;;;;;;35.75;8.48;;;;;;;10.21;100.00;97499.25;5063697;28;20060;-83
2022/09/26 07:43:12;;;;;;;47.60;6.18;;;;;;;10.33;100.00;97499.22;5061426;28;20075;-83
2022/09/26 07:51:10;;;;;;;37.15;6.15;;;;;;;10.76;100.00;97483.28;5065163;28;20064;-82
2022/09/26 07:53:40;;;;;;;40.72;6.85;;;;;;;10.96;100.00;97498.63;5061041;28;20390;-81
2022/09/26 07:56:09;;;;;;;34.13;6.50;;;;;;;10.97;100.00;97505.47;5058001;28;20028;-81
2022/09/26 07:58:38;;;;;;;38.40;6.63;;;;;;;11.08;100.00;97522.97;5060961;28;20435;-80
2022/09/26 08:01:06;;;;;;;35.40;6.70;;;;;;;10.91;100.00;97520.31;5056995;28;20024;-82
2022/09/26 08:03:33;;;;;;;32.72;5.60;;;;;;;10.96;100.00;97525.66;5052756;28;20471;-82
2022/09/26 08:06:01;;;;;;;24.75;4.70;;;;;;;10.92;100.00;97529.00;5046840;28;20021;-82
2022/09/26 08:08:29;;;;;;;25.85;5.50;;;;;;;10.79;100.00;97519.53;5064699;28;20036;-82
2022/09/26 08:10:56;;;;;;;27.20;5.13;;;;;;;10.71;100.00;97529.38;5045909;28;20060;-82
2022/09/26 08:13:24;;;;;;;23.30;6.38;;;;;;;10.85;100.00;97529.13;5061000;28;20543;-82
2022/09/26 08:15:51;;;;;;;25.30;4.55;;;;;;;10.96;100.00;97538.00;5063878;28;20501;-82
2022/09/26 08:18:18;;;;;;;25.00;5.60;;;;;;;11.04;100.00;97547.34;5065359;28;20056;-82
2022/09/26 08:20:46;;;;;;;30.13;5.20;;;;;;;10.96;100.00;97525.66;5058617;28;20078;-83
2022/09/26 08:23:18;;;;;;;27.98;4.38;;;;;;;10.98;100.00;97549.06;5065932;28;20036;-82
2022/09/26 08:25:47;;;;;;;26.23;4.82;;;;;;;11.15;100.00;97559.59;5064874;28;20021;-80
2022/09/26 08:28:12;;;;;;;20.08;5.00;;;;;;;11.31;100.00;97557.25;5065115;28;20046;-80
2022/09/26 08:30:39;;;;;;;27.73;5.50;;;;;;;11.29;100.00;97576.69;5058875;28;20040;-80
2022/09/26 08:33:06;;;;;;;31.75;4.95;;;;;;;11.18;100.00;97559.13;5059635;28;20108;-80
2022/09/26 08:35:40;;;;;;;29.90;4.78;;;;;;;11.19;100.00;97552.84;5062225;28;20359;-82
2022/09/26 08:38:07;;;;;;;14.52;2.50;;;;;;;11.29;100.00;97560.91;5061795;28;20039;-81
2022/09/26 08:40:58;;;;;;;26.38;4.13;;;;;;;11.57;100.00;97572.41;5045081;28;20483;-84
2022/09/26 08:43:36;;;;;;;30.88;4.53;;;;;;;11.50;100.00;97571.78;5061325;28;20033;-84
2022/09/26 08:49:29;;;;;;;22.17;4.25;;;;;;;11.29;100.00;97566.19;5059233;28;20024;-82
2022/09/26 08:51:58;;;;;;;22.75;4.80;;;;;;;11.18;100.00;97564.38;5055968;28;20047;-82
2022/09/26 08:54:33;;;;;;;17.73;3.85;;;;;;;11.35;100.00;97566.25;5053266;28;20031;-82
2022/09/26 08:57:20;;;;;;;22.52;4.45;;;;;;;11.26;100.00;97556.16;5063486;28;20119;-82
2022/09/26 08:59:48;;;;;;;20.83;4.50;;;;;;;11.28;100.00;97577.72;5057341;28;20063;-83
2022/09/26 09:02:40;;;;;;;23.25;4.03;;;;;;;10.99;100.00;97572.44;5061952;28;20068;-82
2022/09/26 09:05:15;;;;;;;17.08;4.43;;;;;;;10.99;100.00;97577.69;5068401;28;20037;-82
2022/09/26 09:07:41;;;;;;;16.50;4.07;;;;;;;11.05;100.00;97591.72;5062238;28;20025;-82
2022/09/26 09:10:13;;;;;;;25.55;4.10;;;;;;;11.18;100.00;97584.63;5063445;28;20032;-81
2022/09/26 09:13:04;;;;;;;21.92;5.20;;;;;;;11.15;100.00;97596.38;5055558;28;20029;-81
2022/09/26 09:15:49;;;;;;;21.08;4.10;;;;;;;11.03;100.00;97577.25;5063259;28;20032;-81
2022/09/26 09:18:26;;;;;;;17.85;3.55;;;;;;;11.06;100.00;97603.81;5058492;28;20068;-81
2022/09/26 09:21:05;;;;;;;16.20;3.72;;;;;;;11.11;100.00;97626.75;5070487;28;20040;-81
2022/09/26 09:24:27;;;;;;;18.77;4.03;;;;;;;10.93;100.00;97636.38;5062185;28;20475;-82
2022/09/26 09:26:55;;;;;;;16.90;4.10;;;;;;;11.17;100.00;97625.81;5032035;28;20586;-81
2022/09/26 09:29:39;;;;;;;13.68;3.10;;;;;;;11.18;100.00;97637.91;5016076;28;20033;-81
2022/09/26 09:32:11;;;;;;;15.90;2.80;;;;;;;11.48;100.00;97630.84;5044370;28;20033;-83
2022/09/26 09:34:41;;;;;;;15.25;3.25;;;;;;;11.50;100.00;97645.34;5062006;28;20067;-82
2022/09/26 09:37:17;;;;;;;16.63;3.75;;;;;;;11.74;100.00;97634.72;5060847;28;20052;-82
2022/09/26 09:39:46;;;;;;;16.58;2.80;;;;;;;12.09;100.00;97630.34;5059553;28;20079;-81
2022/09/26 09:42:26;;;;;;;12.45;2.88;;;;;;;12.43;100.00;97635.56;5059424;28;20058;-82
2022/09/26 09:45:03;;;;;;;15.73;2.75;;;;;;;12.50;100.00;97648.56;5045079;28;20040;-82
2022/09/26 09:47:29;;;;;;;13.00;2.38;;;;;;;12.47;100.00;97649.84;5062075;28;20027;-82
2022/09/26 09:49:56;;;;;;;9.82;2.63;;;;;;;12.22;100.00;97629.22;5065093;28;20028;-82
2022/09/26 09:52:43;;;;;;;9.45;2.55;;;;;;;12.31;100.00;97661.97;5065111;28;20048;-82
2022/09/26 09:55:40;;;;;;;9.70;2.58;;;;;;;12.38;100.00;97653.94;5056282;28;20028;-83
2022/09/26 09:58:18;;;;;;;8.30;2.78;;;;;;;12.13;100.00;97644.63;5054834;28;20048;-83
2022/09/26 10:00:52;;;;;;;8.02;2.40;;;;;;;12.17;100.00;97652.81;5063364;28;20043;-83
2022/09/26 10:03:54;;;;;;;14.35;2.80;;;;;;;12.31;100.00;97656.72;5066998;28;20036;-83
2022/09/26 10:06:21;;;;;;;11.18;2.28;;;;;;;12.39;100.00;97639.72;5025567;28;20041;-82
2022/09/26 10:08:49;;;;;;;11.52;2.45;;;;;;;12.76;100.00;97662.09;5061126;28;20025;-82
2022/09/26 10:11:53;;;;;;;8.15;2.60;;;;;;;13.04;100.00;97663.00;5063103;28;20032;-82
2022/09/26 10:14:29;;;;;;;9.52;2.45;;;;;;;13.11;100.00;97659.13;5028023;28;20059;-82
2022/09/26 10:17:24;;;;;;;13.93;2.95;;;;;;;13.11;100.00;97655.69;5061333;28;20040;-82
2022/09/26 10:19:50;;;;;;;11.40;2.53;;;;;;;12.97;100.00;97666.59;5057490;28;20048;-82
2022/09/26 10:22:28;;;;;;;11.65;2.75;;;;;;;12.74;100.00;97661.53;5063321;28;20116;-82
2022/09/26 10:25:17;;;;;;;8.20;2.90;;;;;;;12.36;100.00;97669.16;5065820;28;20025;-82
2022/09/26 10:27:54;;;;;;;9.40;3.38;;;;;;;12.55;100.00;97667.06;5060634;28;20037;-82
2022/09/26 10:30:30;;;;;;;7.50;2.78;;;;;;;12.91;100.00;97672.81;5062928;28;20043;-82
2022/09/26 10:32:58;;;;;;;10.30;2.97;;;;;;;12.88;100.00;97678.59;5058597;28;20025;-82
2022/09/26 10:35:28;;;;;;;10.77;2.60;;;;;;;12.59;100.00;97670.03;5059989;28;20462;-82
2022/09/26 10:37:54;;;;;;;5.80;2.13;;;;;;;12.60;100.00;97692.66;5059981;28;20115;-83
2022/09/26 10:40:46;;;;;;;7.90;2.40;;;;;;;12.63;100.00;97685.09;5062369;28;20074;-82
2022/09/26 10:43:32;;;;;;;6.18;1.88;;;;;;;12.57;100.00;97683.41;5060093;28;20032;-82
2022/09/26 10:46:12;;;;;;;7.95;1.85;;;;;;;13.04;100.00;97691.97;5065900;28;20085;-82
2022/09/26 10:48:46;;;;;;;6.65;2.20;;;;;;;13.17;100.00;97675.81;5060012;28;20025;-82
2022/09/26 10:51:41;;;;;;;4.50;1.90;;;;;;;12.97;100.00;97677.13;5062947;28;20028;-83
2022/09/26 10:54:17;;;;;;;9.90;2.50;;;;;;;12.75;100.00;97699.97;5066888;28;20050;-83
2022/09/26 10:56:53;;;;;;;13.93;3.22;;;;;;;12.57;100.00;97700.00;5047184;28;20036;-82
2022/09/26 10:59:24;;;;;;;8.93;2.70;;;;;;;12.51;100.00;97681.75;5064575;28;20040;-83
2022/09/26 11:01:55;;;;;;;7.18;2.55;;;;;;;12.21;100.00;97691.56;5041978;28;20489;-82
2022/09/26 11:07:23;;;;;;;;;;;;;;;12.72;100.00;97685.50;5060754;28;20025;-81
2022/09/26 11:09:51;;;;;;;6.55;2.35;;;;;;;13.12;100.00;97679.16;5050482;28;19913;-82
2022/09/26 11:12:26;;;;;;;8.70;1.95;;;;;;;13.27;100.00;97678.56;5058647;28;20048;-83
2022/09/26 11:15:09;;;;;;;5.55;1.85;;;;;;;13.30;100.00;97674.63;5056339;28;20036;-83
2022/09/26 11:17:46;;;;;;;11.45;2.63;;;;;;;13.36;100.00;97686.00;5059517;28;20490;-82
2022/09/26 11:20:59;;;;;;;8.38;2.00;;;;;;;13.38;100.00;97686.59;5063371;28;20025;-82
2022/09/26 11:24:36;;;;;;;3.42;1.80;;;;;;;13.07;100.00;97705.44;4982527;28;20053;-83
2022/09/26 11:27:27;;;;;;;7.30;2.75;;;;;;;13.31;100.00;97712.31;4966217;28;20104;-82
2022/09/26 11:30:19;;;;;;;11.25;2.58;;;;;;;13.65;100.00;97710.34;5061371;28;20079;-82
2022/09/26 11:32:55;;;;;;;9.45;2.63;;;;;;;13.76;100.00;97692.03;5058799;28;20536;-82
2022/09/26 11:35:57;;;;;;;9.32;2.35;;;;;;;14.08;100.00;97699.97;5061817;28;20033;-82
2022/09/26 11:38:45;;;;;;;7.97;3.03;;;;;;;13.88;100.00;97694.50;5056880;28;20029;-82
2022/09/26 11:41:37;;;;;;;6.93;2.38;;;;;;;14.06;100.00;97701.28;5059231;28;20028;-82
2022/09/26 11:44:28;;;;;;;9.43;3.13;;;;;;;14.08;100.00;97699.97;5066031;28;20040;-82
2022/09/26 11:47:33;;;;;;;7.07;2.40;;;;;;;14.07;100.00;97713.44;5058322;28;20092;-82
2022/09/26 11:50:20;;;;;;;10.48;2.40;;;;;;;13.83;100.00;97695.25;5055441;28;20025;-82
2022/09/26 11:52:51;;;;;;;8.60;3.20;;;;;;;13.62;100.00;97707.44;5062964;28;20115;-82
2022/09/26 11:55:28;;;;;;;7.25;2.60;;;;;;;13.52;100.00;97695.72;5060239;28;21502;-82
2022/09/26 11:58:08;;;;;;;6.70;2.50;;;;;;;13.90;100.00;97708.25;5057668;28;20076;-82
2022/09/26 12:00:51;;;;;;;5.43;1.90;;;;;;;14.03;100.00;97694.66;5058531;28;20037;-82